ETD480 OMAA-WIMM
Flight info
| Callsign | ETD480 |
|---|---|
| Flight time | N/A |
| Altitude | 35000 |
| Route | KANIP N318 TOLDA L555 TOTOX P574 ANSAX DCT PAKAM |
| Aircraft | A21N/M-SDE3FGHIRWY/LB1 |
Departure
| Time | N/A |
|---|---|
| Airport | Zayed International Airport (OMAA) |
Arrival
| Time | 2026-04-23 14:34 |
|---|---|
| Airport | Kualanamu International Airport (WIMM) |
| Time | Latitude | Longitude | Altitude | Speed | Heading |
|---|---|---|---|---|---|
| 2026-04-23 09:47 | 19.56991 | 66.98468 | 34832 ft | 469 kts | 118° |
| 2026-04-23 09:47 | 19.55460 | 67.01485 | 34832 ft | 469 kts | 118° |
| 2026-04-23 09:48 | 19.52368 | 67.07577 | 34832 ft | 469 kts | 118° |
| 2026-04-23 09:48 | 19.49259 | 67.13696 | 34832 ft | 469 kts | 118° |
| 2026-04-23 09:49 | 19.46170 | 67.19769 | 34832 ft | 469 kts | 118° |
| 2026-04-23 09:49 | 19.43082 | 67.25832 | 34832 ft | 469 kts | 118° |
| 2026-04-23 09:50 | 19.39983 | 67.31911 | 34832 ft | 469 kts | 118° |
| 2026-04-23 09:50 | 19.36875 | 67.38001 | 34832 ft | 469 kts | 118° |
| 2026-04-23 09:51 | 19.33785 | 67.44051 | 34832 ft | 468 kts | 118° |
| 2026-04-23 09:51 | 19.30681 | 67.50123 | 34832 ft | 468 kts | 118° |
| 2026-04-23 09:52 | 19.27591 | 67.56160 | 34832 ft | 467 kts | 118° |
| 2026-04-23 09:52 | 19.24499 | 67.62193 | 34832 ft | 467 kts | 118° |
| 2026-04-23 09:53 | 19.21398 | 67.68252 | 34832 ft | 468 kts | 118° |
| 2026-04-23 09:53 | 19.18320 | 67.74274 | 34832 ft | 468 kts | 118° |
| 2026-04-23 09:54 | 19.15218 | 67.80319 | 34832 ft | 468 kts | 118° |
| 2026-04-23 09:54 | 19.12120 | 67.86341 | 34832 ft | 468 kts | 118° |
| 2026-04-23 09:55 | 19.09001 | 67.92397 | 34832 ft | 468 kts | 118° |
| 2026-04-23 09:55 | 19.05890 | 67.98431 | 34832 ft | 468 kts | 118° |
| 2026-04-23 09:56 | 19.02810 | 68.04485 | 34832 ft | 468 kts | 118° |
| 2026-04-23 09:56 | 18.99766 | 68.10548 | 34832 ft | 468 kts | 118° |
| 2026-04-23 09:57 | 18.96724 | 68.16594 | 34832 ft | 468 kts | 118° |
| 2026-04-23 09:57 | 18.93658 | 68.22675 | 34832 ft | 468 kts | 118° |
| 2026-04-23 09:58 | 18.90604 | 68.28723 | 34832 ft | 468 kts | 118° |
| 2026-04-23 09:58 | 18.87539 | 68.34748 | 34832 ft | 468 kts | 118° |
| 2026-04-23 09:59 | 18.84455 | 68.40792 | 34832 ft | 468 kts | 118° |
| 2026-04-23 09:59 | 18.81387 | 68.46831 | 34832 ft | 468 kts | 118° |
| 2026-04-23 10:00 | 18.78311 | 68.52891 | 34832 ft | 468 kts | 118° |
| 2026-04-23 10:00 | 18.75257 | 68.58910 | 34832 ft | 468 kts | 118° |
| 2026-04-23 10:01 | 18.72186 | 68.64956 | 34832 ft | 468 kts | 118° |
| 2026-04-23 10:01 | 18.69123 | 68.71004 | 34831 ft | 468 kts | 118° |
| 2026-04-23 10:02 | 18.66065 | 68.77032 | 34826 ft | 468 kts | 118° |
| 2026-04-23 10:02 | 18.62990 | 68.83073 | 34818 ft | 468 kts | 118° |
| 2026-04-23 10:03 | 18.59908 | 68.89118 | 34809 ft | 468 kts | 118° |
| 2026-04-23 10:03 | 18.56837 | 68.95135 | 34798 ft | 468 kts | 118° |
| 2026-04-23 10:04 | 18.53755 | 69.01165 | 34788 ft | 468 kts | 118° |
| 2026-04-23 10:04 | 18.50668 | 69.07201 | 34782 ft | 468 kts | 118° |
| 2026-04-23 10:05 | 18.47591 | 69.13212 | 34780 ft | 468 kts | 118° |
| 2026-04-23 10:05 | 18.44505 | 69.19237 | 34779 ft | 468 kts | 118° |
| 2026-04-23 10:06 | 18.41427 | 69.25242 | 34779 ft | 467 kts | 119° |
| 2026-04-23 10:06 | 18.38384 | 69.31278 | 34779 ft | 467 kts | 117° |
| 2026-04-23 10:07 | 18.35528 | 69.37444 | 34779 ft | 467 kts | 116° |
| 2026-04-23 10:07 | 18.32703 | 69.43576 | 34779 ft | 467 kts | 116° |
| 2026-04-23 10:08 | 18.29856 | 69.49744 | 34779 ft | 467 kts | 116° |
| 2026-04-23 10:08 | 18.27018 | 69.55881 | 34779 ft | 467 kts | 116° |
| 2026-04-23 10:09 | 18.22771 | 69.65050 | 34779 ft | 466 kts | 117° |
| 2026-04-23 10:09 | 18.19941 | 69.71179 | 34778 ft | 467 kts | 117° |
| 2026-04-23 10:10 | 18.17099 | 69.77322 | 34779 ft | 467 kts | 117° |
| 2026-04-23 10:10 | 18.14246 | 69.83467 | 34779 ft | 467 kts | 117° |
| 2026-04-23 10:11 | 18.11402 | 69.89582 | 34779 ft | 467 kts | 117° |
| 2026-04-23 10:11 | 18.08550 | 69.95708 | 34783 ft | 467 kts | 117° |
| 2026-04-23 10:12 | 18.05695 | 70.01832 | 34788 ft | 466 kts | 117° |
| 2026-04-23 10:12 | 18.02837 | 70.07958 | 34790 ft | 466 kts | 117° |
| 2026-04-23 10:13 | 17.99993 | 70.14047 | 34789 ft | 466 kts | 117° |
| 2026-04-23 10:13 | 17.97124 | 70.20185 | 34783 ft | 466 kts | 117° |
| 2026-04-23 10:14 | 17.94267 | 70.26293 | 34774 ft | 467 kts | 117° |
| 2026-04-23 10:14 | 17.91404 | 70.32403 | 34765 ft | 467 kts | 117° |
| 2026-04-23 10:15 | 17.88541 | 70.38490 | 34757 ft | 467 kts | 118° |
| 2026-04-23 10:15 | 17.85648 | 70.44601 | 34753 ft | 467 kts | 118° |
| 2026-04-23 10:16 | 17.82777 | 70.50706 | 34752 ft | 467 kts | 118° |
| 2026-04-23 10:16 | 17.79908 | 70.56812 | 34752 ft | 468 kts | 118° |
| 2026-04-23 10:17 | 17.77015 | 70.62935 | 34752 ft | 468 kts | 118° |
| 2026-04-23 10:17 | 17.74187 | 70.68926 | 34751 ft | 468 kts | 118° |
| 2026-04-23 10:18 | 17.71315 | 70.75029 | 34751 ft | 468 kts | 119° |
| 2026-04-23 10:18 | 17.68433 | 70.81136 | 34752 ft | 468 kts | 119° |
| 2026-04-23 10:19 | 17.65544 | 70.87243 | 34752 ft | 468 kts | 119° |
| 2026-04-23 10:19 | 17.62652 | 70.93349 | 34752 ft | 468 kts | 119° |
| 2026-04-23 10:20 | 17.59757 | 70.99454 | 34752 ft | 468 kts | 119° |
| 2026-04-23 10:20 | 17.56856 | 71.05567 | 34752 ft | 468 kts | 120° |
| 2026-04-23 10:21 | 17.53968 | 71.11646 | 34752 ft | 468 kts | 120° |
| 2026-04-23 10:21 | 17.51051 | 71.17781 | 34752 ft | 469 kts | 120° |
| 2026-04-23 10:22 | 17.48149 | 71.23879 | 34752 ft | 469 kts | 120° |
| 2026-04-23 10:22 | 17.45248 | 71.29968 | 34752 ft | 469 kts | 120° |
| 2026-04-23 10:23 | 17.42324 | 71.36102 | 34751 ft | 469 kts | 120° |
| 2026-04-23 10:23 | 17.39405 | 71.42222 | 34752 ft | 469 kts | 120° |
| 2026-04-23 10:24 | 17.36502 | 71.48302 | 34752 ft | 469 kts | 120° |
| 2026-04-23 10:24 | 17.33568 | 71.54426 | 34752 ft | 469 kts | 120° |
| 2026-04-23 10:25 | 17.30649 | 71.60515 | 34752 ft | 469 kts | 121° |
| 2026-04-23 10:25 | 17.27719 | 71.66631 | 34750 ft | 469 kts | 121° |
| 2026-04-23 10:26 | 17.24797 | 71.72757 | 34752 ft | 469 kts | 121° |
| 2026-04-23 10:26 | 17.21864 | 71.78881 | 34752 ft | 469 kts | 121° |
| 2026-04-23 10:27 | 17.18946 | 71.84959 | 34752 ft | 469 kts | 121° |
| 2026-04-23 10:27 | 17.16014 | 71.91051 | 34752 ft | 469 kts | 121° |
| 2026-04-23 10:28 | 17.13074 | 71.97161 | 34752 ft | 469 kts | 121° |
| 2026-04-23 10:28 | 17.10146 | 72.03253 | 34753 ft | 468 kts | 122° |
| 2026-04-23 10:29 | 17.07249 | 72.09325 | 34752 ft | 468 kts | 122° |
| 2026-04-23 10:29 | 17.04378 | 72.15449 | 34752 ft | 468 kts | 122° |
| 2026-04-23 10:30 | 17.01501 | 72.21580 | 34752 ft | 468 kts | 122° |
| 2026-04-23 10:30 | 16.98631 | 72.27685 | 34752 ft | 468 kts | 122° |
| 2026-04-23 10:31 | 16.95753 | 72.33796 | 34752 ft | 467 kts | 122° |
| 2026-04-23 10:31 | 16.92877 | 72.39898 | 34752 ft | 467 kts | 122° |
| 2026-04-23 10:32 | 16.90013 | 72.45966 | 34752 ft | 467 kts | 122° |
| 2026-04-23 10:32 | 16.87122 | 72.52039 | 34753 ft | 466 kts | 123° |
| 2026-04-23 10:33 | 16.84238 | 72.58099 | 34752 ft | 467 kts | 123° |
| 2026-04-23 10:33 | 16.81346 | 72.64197 | 34752 ft | 467 kts | 123° |
| 2026-04-23 10:34 | 16.78482 | 72.70271 | 34752 ft | 466 kts | 123° |
| 2026-04-23 10:34 | 16.75626 | 72.76324 | 34753 ft | 466 kts | 123° |
| 2026-04-23 10:35 | 16.72748 | 72.82401 | 34757 ft | 466 kts | 123° |
| 2026-04-23 10:35 | 16.69868 | 72.88470 | 34761 ft | 465 kts | 123° |
| 2026-04-23 10:36 | 16.66992 | 72.94522 | 34766 ft | 465 kts | 123° |
| 2026-04-23 10:36 | 16.64123 | 73.00556 | 34771 ft | 465 kts | 124° |
| 2026-04-23 10:37 | 16.61252 | 73.06593 | 34775 ft | 464 kts | 124° |
| 2026-04-23 10:37 | 16.58359 | 73.12631 | 34777 ft | 464 kts | 125° |
| 2026-04-23 10:38 | 16.55413 | 73.18576 | 34777 ft | 463 kts | 125° |
| 2026-04-23 10:38 | 16.52437 | 73.24569 | 34777 ft | 462 kts | 125° |
| 2026-04-23 10:39 | 16.49498 | 73.30499 | 34778 ft | 462 kts | 125° |
| 2026-04-23 10:40 | 16.43588 | 73.42425 | 34777 ft | 462 kts | 126° |
| 2026-04-23 10:40 | 16.40648 | 73.48356 | 34777 ft | 461 kts | 126° |
| 2026-04-23 10:41 | 16.37700 | 73.54295 | 34777 ft | 460 kts | 126° |
| 2026-04-23 10:41 | 16.34779 | 73.60252 | 34778 ft | 462 kts | 125° |
| 2026-04-23 10:42 | 16.31922 | 73.66205 | 34774 ft | 462 kts | 126° |
| 2026-04-23 10:42 | 16.29065 | 73.72182 | 34776 ft | 461 kts | 126° |
| 2026-04-23 10:43 | 16.26184 | 73.78175 | 34773 ft | 461 kts | 126° |
| 2026-04-23 10:43 | 16.23313 | 73.84128 | 34772 ft | 460 kts | 126° |
| 2026-04-23 10:44 | 16.20428 | 73.90094 | 34766 ft | 460 kts | 126° |
| 2026-04-23 10:44 | 16.17576 | 73.96013 | 34764 ft | 460 kts | 126° |
| 2026-04-23 10:45 | 16.14709 | 74.01968 | 34772 ft | 460 kts | 126° |
| 2026-04-23 10:45 | 16.11837 | 74.07929 | 34795 ft | 460 kts | 126° |
| 2026-04-23 10:46 | 16.08957 | 74.13899 | 34824 ft | 460 kts | 126° |
| 2026-04-23 10:46 | 16.06089 | 74.19840 | 34852 ft | 460 kts | 126° |
| 2026-04-23 10:47 | 16.03225 | 74.25765 | 34871 ft | 460 kts | 126° |
| 2026-04-23 10:47 | 16.00343 | 74.31725 | 34881 ft | 461 kts | 126° |
| 2026-04-23 10:48 | 15.97458 | 74.37685 | 34885 ft | 461 kts | 126° |
| 2026-04-23 10:48 | 15.94585 | 74.43618 | 34886 ft | 461 kts | 126° |
| 2026-04-23 10:49 | 15.91704 | 74.49564 | 34888 ft | 460 kts | 126° |
| 2026-04-23 10:49 | 15.88811 | 74.55517 | 34889 ft | 459 kts | 126° |
| 2026-04-23 10:50 | 15.85915 | 74.61432 | 34886 ft | 459 kts | 126° |
| 2026-04-23 10:50 | 15.82952 | 74.67252 | 34885 ft | 457 kts | 128° |
| 2026-04-23 10:51 | 15.79947 | 74.73053 | 34886 ft | 457 kts | 128° |
| 2026-04-23 10:51 | 15.76928 | 74.78886 | 34887 ft | 457 kts | 127° |
| 2026-04-23 10:52 | 15.73909 | 74.84720 | 34887 ft | 457 kts | 127° |
| 2026-04-23 10:52 | 15.70903 | 74.90525 | 34887 ft | 457 kts | 127° |
| 2026-04-23 10:53 | 15.67899 | 74.96320 | 34881 ft | 456 kts | 127° |
| 2026-04-23 10:53 | 15.64899 | 75.02107 | 34866 ft | 456 kts | 127° |
| 2026-04-23 10:54 | 15.61890 | 75.07909 | 34845 ft | 456 kts | 127° |
| 2026-04-23 10:54 | 15.58867 | 75.13727 | 34826 ft | 456 kts | 127° |
| 2026-04-23 10:55 | 15.55846 | 75.19538 | 34814 ft | 456 kts | 127° |
| 2026-04-23 10:55 | 15.52839 | 75.25319 | 34809 ft | 456 kts | 127° |
| 2026-04-23 10:56 | 15.49830 | 75.31099 | 34807 ft | 456 kts | 127° |
| 2026-04-23 10:56 | 15.46809 | 75.36899 | 34807 ft | 456 kts | 127° |
| 2026-04-23 10:57 | 15.43779 | 75.42710 | 34807 ft | 455 kts | 127° |
| 2026-04-23 10:57 | 15.40770 | 75.48478 | 34807 ft | 455 kts | 127° |
| 2026-04-23 10:58 | 15.37747 | 75.54266 | 34807 ft | 455 kts | 127° |
| 2026-04-23 10:58 | 15.34726 | 75.60044 | 34807 ft | 455 kts | 127° |
| 2026-04-23 10:59 | 15.31723 | 75.65787 | 34805 ft | 455 kts | 128° |
| 2026-04-23 10:59 | 15.28718 | 75.71564 | 34806 ft | 455 kts | 128° |
| 2026-04-23 11:00 | 15.25693 | 75.77361 | 34807 ft | 455 kts | 128° |
| 2026-04-23 11:00 | 15.22683 | 75.83106 | 34807 ft | 455 kts | 128° |
| 2026-04-23 11:01 | 15.19674 | 75.88842 | 34807 ft | 455 kts | 128° |
| 2026-04-23 11:01 | 15.16633 | 75.94631 | 34807 ft | 455 kts | 128° |
| 2026-04-23 11:02 | 15.13612 | 76.00390 | 34806 ft | 455 kts | 127° |
| 2026-04-23 11:02 | 15.10703 | 76.06194 | 34807 ft | 457 kts | 126° |
| 2026-04-23 11:03 | 15.07794 | 76.12080 | 34807 ft | 457 kts | 126° |
| 2026-04-23 11:03 | 15.04906 | 76.17899 | 34807 ft | 457 kts | 126° |
| 2026-04-23 11:04 | 15.01985 | 76.23772 | 34807 ft | 457 kts | 126° |
| 2026-04-23 11:04 | 14.99081 | 76.29601 | 34807 ft | 458 kts | 126° |
| 2026-04-23 11:05 | 14.96159 | 76.35461 | 34807 ft | 458 kts | 126° |
| 2026-04-23 11:05 | 14.93231 | 76.41330 | 34807 ft | 458 kts | 126° |
| 2026-04-23 11:06 | 14.88829 | 76.50130 | 34808 ft | 458 kts | 126° |
| 2026-04-23 11:07 | 14.85880 | 76.55977 | 34807 ft | 458 kts | 126° |
| 2026-04-23 11:07 | 14.82938 | 76.61831 | 34807 ft | 458 kts | 126° |
| 2026-04-23 11:08 | 14.80016 | 76.67668 | 34806 ft | 458 kts | 126° |
| 2026-04-23 11:08 | 14.77096 | 76.73533 | 34806 ft | 459 kts | 126° |
| 2026-04-23 11:09 | 14.74166 | 76.79391 | 34807 ft | 459 kts | 126° |
| 2026-04-23 11:09 | 14.71223 | 76.85263 | 34806 ft | 459 kts | 126° |
| 2026-04-23 11:10 | 14.68296 | 76.91090 | 34802 ft | 459 kts | 126° |
| 2026-04-23 11:10 | 14.65339 | 76.96980 | 34796 ft | 459 kts | 126° |
| 2026-04-23 11:11 | 14.62415 | 77.02800 | 34790 ft | 459 kts | 126° |
| 2026-04-23 11:11 | 14.59446 | 77.08697 | 34784 ft | 459 kts | 125° |
| 2026-04-23 11:12 | 14.56461 | 77.14520 | 34780 ft | 458 kts | 126° |
| 2026-04-23 11:12 | 14.53472 | 77.20303 | 34779 ft | 458 kts | 126° |
| 2026-04-23 11:13 | 14.50475 | 77.26108 | 34779 ft | 458 kts | 126° |
| 2026-04-23 11:13 | 14.47474 | 77.31928 | 34779 ft | 458 kts | 126° |
| 2026-04-23 11:14 | 14.44473 | 77.37744 | 34779 ft | 458 kts | 126° |
| 2026-04-23 11:14 | 14.41466 | 77.43571 | 34779 ft | 458 kts | 126° |
| 2026-04-23 11:15 | 14.38477 | 77.49359 | 34779 ft | 458 kts | 126° |
| 2026-04-23 11:15 | 14.35480 | 77.55156 | 34783 ft | 459 kts | 126° |
| 2026-04-23 11:16 | 14.32462 | 77.60993 | 34790 ft | 458 kts | 126° |
| 2026-04-23 11:16 | 14.29461 | 77.66793 | 34798 ft | 458 kts | 126° |
| 2026-04-23 11:17 | 14.26476 | 77.72594 | 34809 ft | 458 kts | 126° |
| 2026-04-23 11:17 | 14.23482 | 77.78391 | 34819 ft | 458 kts | 126° |
| 2026-04-23 11:18 | 14.20484 | 77.84175 | 34818 ft | 458 kts | 126° |
| 2026-04-23 11:18 | 14.17468 | 77.89986 | 34803 ft | 458 kts | 126° |
| 2026-04-23 11:19 | 14.14463 | 77.95771 | 34781 ft | 458 kts | 126° |
| 2026-04-23 11:19 | 14.11454 | 78.01559 | 34757 ft | 458 kts | 126° |
| 2026-04-23 11:20 | 14.08436 | 78.07360 | 34737 ft | 458 kts | 126° |
| 2026-04-23 11:20 | 14.05428 | 78.13139 | 34728 ft | 458 kts | 126° |
| 2026-04-23 11:21 | 14.02399 | 78.18952 | 34725 ft | 458 kts | 126° |
| 2026-04-23 11:21 | 13.99391 | 78.24721 | 34724 ft | 458 kts | 125° |
| 2026-04-23 11:22 | 13.96360 | 78.30527 | 34724 ft | 459 kts | 125° |
| 2026-04-23 11:22 | 13.93349 | 78.36296 | 34724 ft | 458 kts | 125° |
| 2026-04-23 11:23 | 13.90329 | 78.42075 | 34725 ft | 458 kts | 125° |
| 2026-04-23 11:23 | 13.87291 | 78.47847 | 34730 ft | 457 kts | 126° |
| 2026-04-23 11:24 | 13.84261 | 78.53597 | 34742 ft | 457 kts | 125° |
| 2026-04-23 11:24 | 13.81218 | 78.59392 | 34756 ft | 457 kts | 125° |
| 2026-04-23 11:25 | 13.78201 | 78.65141 | 34771 ft | 456 kts | 125° |
| 2026-04-23 11:25 | 13.75193 | 78.70909 | 34786 ft | 456 kts | 125° |
| 2026-04-23 11:26 | 13.72194 | 78.76651 | 34797 ft | 456 kts | 125° |
| 2026-04-23 11:26 | 13.69195 | 78.82371 | 34803 ft | 456 kts | 125° |
| 2026-04-23 11:27 | 13.66185 | 78.88103 | 34805 ft | 455 kts | 125° |
| 2026-04-23 11:27 | 13.63173 | 78.93830 | 34805 ft | 455 kts | 125° |
| 2026-04-23 11:28 | 13.60154 | 78.99568 | 34805 ft | 455 kts | 125° |
| 2026-04-23 11:28 | 13.57162 | 79.05251 | 34797 ft | 455 kts | 125° |
| 2026-04-23 11:29 | 13.54144 | 79.10977 | 34783 ft | 454 kts | 125° |
| 2026-04-23 11:29 | 13.51127 | 79.16701 | 34765 ft | 454 kts | 125° |
| 2026-04-23 11:30 | 13.48132 | 79.22379 | 34746 ft | 454 kts | 125° |
| 2026-04-23 11:30 | 13.45107 | 79.28107 | 34732 ft | 454 kts | 124° |
| 2026-04-23 11:31 | 13.42100 | 79.33800 | 34726 ft | 454 kts | 124° |
| 2026-04-23 11:31 | 13.39094 | 79.39487 | 34724 ft | 454 kts | 124° |
| 2026-04-23 11:32 | 13.36068 | 79.45207 | 34724 ft | 454 kts | 124° |
| 2026-04-23 11:32 | 13.33050 | 79.50907 | 34724 ft | 454 kts | 124° |
| 2026-04-23 11:33 | 13.30026 | 79.56618 | 34724 ft | 454 kts | 124° |
| 2026-04-23 11:33 | 13.27004 | 79.62319 | 34724 ft | 454 kts | 124° |
| 2026-04-23 11:34 | 13.23992 | 79.68010 | 34724 ft | 454 kts | 124° |
| 2026-04-23 11:34 | 13.20993 | 79.73693 | 34729 ft | 454 kts | 124° |
| 2026-04-23 11:35 | 13.17958 | 79.79418 | 34733 ft | 453 kts | 124° |
| 2026-04-23 11:35 | 13.14943 | 79.85094 | 34738 ft | 453 kts | 124° |
| 2026-04-23 11:36 | 13.11936 | 79.90751 | 34743 ft | 453 kts | 124° |
| 2026-04-23 11:36 | 13.08905 | 79.96447 | 34747 ft | 453 kts | 124° |
| 2026-04-23 11:37 | 13.05883 | 80.02121 | 34746 ft | 453 kts | 124° |
| 2026-04-23 11:37 | 13.02853 | 80.07807 | 34742 ft | 453 kts | 124° |
| 2026-04-23 11:38 | 12.99845 | 80.13454 | 34736 ft | 453 kts | 124° |
| 2026-04-23 11:38 | 12.97087 | 80.19293 | 34730 ft | 457 kts | 120° |
| 2026-04-23 11:39 | 12.94490 | 80.25255 | 34726 ft | 457 kts | 120° |
| 2026-04-23 11:39 | 12.91896 | 80.31213 | 34724 ft | 457 kts | 120° |
| 2026-04-23 11:40 | 12.89302 | 80.37149 | 34726 ft | 456 kts | 120° |
| 2026-04-23 11:40 | 12.86683 | 80.43080 | 34724 ft | 456 kts | 120° |
| 2026-04-23 11:41 | 12.84065 | 80.49027 | 34724 ft | 456 kts | 120° |
| 2026-04-23 11:41 | 12.81463 | 80.54957 | 34723 ft | 456 kts | 120° |
| 2026-04-23 11:42 | 12.78872 | 80.60867 | 34723 ft | 456 kts | 120° |
| 2026-04-23 11:42 | 12.76261 | 80.66826 | 34726 ft | 456 kts | 120° |
| 2026-04-23 11:43 | 12.73679 | 80.72746 | 34739 ft | 456 kts | 120° |
| 2026-04-23 11:43 | 12.71092 | 80.78661 | 34747 ft | 456 kts | 120° |
| 2026-04-23 11:44 | 12.68492 | 80.84588 | 34750 ft | 455 kts | 120° |
| 2026-04-23 11:44 | 12.65886 | 80.90517 | 34750 ft | 455 kts | 120° |
| 2026-04-23 11:45 | 12.63297 | 80.96402 | 34750 ft | 455 kts | 120° |
| 2026-04-23 11:45 | 12.60686 | 81.02331 | 34750 ft | 455 kts | 120° |
| 2026-04-23 11:46 | 12.58081 | 81.08244 | 34750 ft | 455 kts | 120° |
| 2026-04-23 11:46 | 12.55482 | 81.14141 | 34750 ft | 455 kts | 120° |
| 2026-04-23 11:47 | 12.52887 | 81.20020 | 34750 ft | 455 kts | 119° |
| 2026-04-23 11:47 | 12.50277 | 81.25935 | 34750 ft | 454 kts | 119° |
| 2026-04-23 11:48 | 12.47669 | 81.31837 | 34750 ft | 454 kts | 119° |
| 2026-04-23 11:48 | 12.45080 | 81.37693 | 34750 ft | 453 kts | 119° |
| 2026-04-23 11:49 | 12.42484 | 81.43564 | 34750 ft | 453 kts | 119° |
| 2026-04-23 11:49 | 12.39871 | 81.49464 | 34750 ft | 453 kts | 119° |
| 2026-04-23 11:50 | 12.37285 | 81.55302 | 34751 ft | 452 kts | 119° |
| 2026-04-23 11:50 | 12.34679 | 81.61180 | 34750 ft | 452 kts | 119° |
| 2026-04-23 11:51 | 12.32079 | 81.67046 | 34749 ft | 452 kts | 119° |
| 2026-04-23 11:51 | 12.29502 | 81.72887 | 34750 ft | 451 kts | 119° |
| 2026-04-23 11:52 | 12.26922 | 81.78711 | 34750 ft | 451 kts | 119° |
| 2026-04-23 11:52 | 12.24316 | 81.84583 | 34751 ft | 451 kts | 119° |
| 2026-04-23 11:53 | 12.21725 | 81.90411 | 34750 ft | 451 kts | 119° |
| 2026-04-23 11:53 | 12.19139 | 81.96220 | 34750 ft | 450 kts | 119° |
| 2026-04-23 11:54 | 12.16547 | 82.02040 | 34750 ft | 450 kts | 119° |
| 2026-04-23 11:54 | 12.13936 | 82.07899 | 34750 ft | 450 kts | 119° |
| 2026-04-23 11:55 | 12.11342 | 82.13716 | 34750 ft | 450 kts | 119° |
| 2026-04-23 11:55 | 12.08755 | 82.19514 | 34750 ft | 450 kts | 119° |
| 2026-04-23 11:56 | 12.06162 | 82.25320 | 34750 ft | 450 kts | 119° |
| 2026-04-23 11:56 | 12.03561 | 82.31141 | 34750 ft | 451 kts | 119° |
| 2026-04-23 11:57 | 12.00943 | 82.36996 | 34750 ft | 451 kts | 119° |
| 2026-04-23 11:57 | 11.98321 | 82.42853 | 34750 ft | 450 kts | 119° |
| 2026-04-23 11:58 | 11.95708 | 82.48690 | 34750 ft | 450 kts | 118° |
| 2026-04-23 11:58 | 11.93102 | 82.54507 | 34750 ft | 450 kts | 118° |
| 2026-04-23 11:59 | 11.90495 | 82.60323 | 34750 ft | 450 kts | 118° |
| 2026-04-23 11:59 | 11.87875 | 82.66122 | 34750 ft | 450 kts | 119° |
| 2026-04-23 12:00 | 11.85266 | 82.71920 | 34750 ft | 451 kts | 119° |
| 2026-04-23 12:00 | 11.82648 | 82.77750 | 34750 ft | 451 kts | 119° |
| 2026-04-23 12:01 | 11.80023 | 82.83592 | 34750 ft | 451 kts | 119° |
| 2026-04-23 12:01 | 11.77413 | 82.89394 | 34750 ft | 451 kts | 118° |
| 2026-04-23 12:02 | 11.74789 | 82.95229 | 34750 ft | 451 kts | 118° |
| 2026-04-23 12:02 | 11.72187 | 83.01007 | 34750 ft | 451 kts | 118° |
| 2026-04-23 12:03 | 11.69553 | 83.06855 | 34750 ft | 452 kts | 118° |
| 2026-04-23 12:03 | 11.66937 | 83.12662 | 34750 ft | 452 kts | 118° |
| 2026-04-23 12:04 | 11.64315 | 83.18478 | 34750 ft | 452 kts | 118° |
| 2026-04-23 12:04 | 11.61686 | 83.24316 | 34750 ft | 452 kts | 118° |
| 2026-04-23 12:05 | 11.59053 | 83.30151 | 34750 ft | 452 kts | 118° |
| 2026-04-23 12:05 | 11.56447 | 83.35977 | 34750 ft | 453 kts | 118° |
| 2026-04-23 12:06 | 11.53872 | 83.41809 | 34750 ft | 453 kts | 118° |
| 2026-04-23 12:06 | 11.49986 | 83.50616 | 34750 ft | 453 kts | 118° |
| 2026-04-23 12:07 | 11.47415 | 83.56438 | 34750 ft | 453 kts | 118° |
| 2026-04-23 12:07 | 11.44814 | 83.62321 | 34750 ft | 453 kts | 118° |
| 2026-04-23 12:08 | 11.42225 | 83.68187 | 34750 ft | 453 kts | 118° |
| 2026-04-23 12:08 | 11.39622 | 83.74097 | 34750 ft | 453 kts | 118° |
| 2026-04-23 12:09 | 11.37037 | 83.79950 | 34750 ft | 453 kts | 118° |
| 2026-04-23 12:09 | 11.34451 | 83.85791 | 34750 ft | 453 kts | 118° |
| 2026-04-23 12:10 | 11.31848 | 83.91664 | 34750 ft | 453 kts | 118° |
| 2026-04-23 12:10 | 11.29253 | 83.97512 | 34750 ft | 453 kts | 118° |
| 2026-04-23 12:11 | 11.26652 | 84.03366 | 34750 ft | 454 kts | 117° |
| 2026-04-23 12:11 | 11.24058 | 84.09206 | 34750 ft | 454 kts | 117° |
| 2026-04-23 12:12 | 11.21455 | 84.15063 | 34750 ft | 454 kts | 117° |
| 2026-04-23 12:12 | 11.18832 | 84.20950 | 34749 ft | 456 kts | 117° |
| 2026-04-23 12:13 | 11.16215 | 84.26835 | 34750 ft | 457 kts | 117° |
| 2026-04-23 12:13 | 11.13581 | 84.32755 | 34750 ft | 457 kts | 117° |
| 2026-04-23 12:14 | 11.10969 | 84.38614 | 34750 ft | 457 kts | 117° |
| 2026-04-23 12:14 | 11.08344 | 84.44501 | 34750 ft | 456 kts | 117° |
| 2026-04-23 12:15 | 11.05708 | 84.50413 | 34750 ft | 456 kts | 117° |
| 2026-04-23 12:15 | 11.03089 | 84.56279 | 34750 ft | 456 kts | 117° |
| 2026-04-23 12:16 | 11.00447 | 84.62192 | 34750 ft | 456 kts | 117° |
| 2026-04-23 12:16 | 10.97842 | 84.68031 | 34750 ft | 456 kts | 117° |
| 2026-04-23 12:17 | 10.95210 | 84.73946 | 34750 ft | 455 kts | 117° |
| 2026-04-23 12:17 | 10.92608 | 84.79775 | 34750 ft | 455 kts | 117° |
| 2026-04-23 12:18 | 10.89982 | 84.85643 | 34750 ft | 455 kts | 117° |
| 2026-04-23 12:18 | 10.87330 | 84.91509 | 34751 ft | 455 kts | 117° |
| 2026-04-23 12:19 | 10.84675 | 84.97383 | 34750 ft | 455 kts | 117° |
| 2026-04-23 12:19 | 10.82041 | 85.03237 | 34750 ft | 455 kts | 117° |
| 2026-04-23 12:20 | 10.79412 | 85.09085 | 34750 ft | 455 kts | 117° |
| 2026-04-23 12:20 | 10.76778 | 85.14949 | 34750 ft | 455 kts | 117° |
| 2026-04-23 12:21 | 10.74147 | 85.20802 | 34750 ft | 455 kts | 117° |
| 2026-04-23 12:21 | 10.71518 | 85.26650 | 34750 ft | 454 kts | 117° |
| 2026-04-23 12:22 | 10.68902 | 85.32464 | 34750 ft | 454 kts | 117° |
| 2026-04-23 12:22 | 10.66264 | 85.38322 | 34750 ft | 454 kts | 117° |
| 2026-04-23 12:23 | 10.63635 | 85.44158 | 34750 ft | 454 kts | 117° |
| 2026-04-23 12:23 | 10.61012 | 85.49977 | 34750 ft | 454 kts | 117° |
| 2026-04-23 12:24 | 10.58375 | 85.55825 | 34750 ft | 454 kts | 117° |
| 2026-04-23 12:24 | 10.55743 | 85.61659 | 34750 ft | 454 kts | 117° |
| 2026-04-23 12:25 | 10.53091 | 85.67539 | 34750 ft | 454 kts | 117° |
| 2026-04-23 12:25 | 10.50478 | 85.73355 | 34750 ft | 454 kts | 117° |
| 2026-04-23 12:26 | 10.47846 | 85.79191 | 34750 ft | 454 kts | 117° |
| 2026-04-23 12:26 | 10.45216 | 85.85012 | 34750 ft | 454 kts | 117° |
| 2026-04-23 12:27 | 10.42575 | 85.90848 | 34750 ft | 454 kts | 117° |
| 2026-04-23 12:27 | 10.39945 | 85.96659 | 34750 ft | 454 kts | 117° |
| 2026-04-23 12:28 | 10.37297 | 86.02504 | 34750 ft | 454 kts | 117° |
| 2026-04-23 12:28 | 10.34666 | 86.08306 | 34750 ft | 454 kts | 117° |
| 2026-04-23 12:29 | 10.32015 | 86.14152 | 34750 ft | 454 kts | 117° |
| 2026-04-23 12:29 | 10.29374 | 86.19971 | 34750 ft | 454 kts | 117° |
| 2026-04-23 12:30 | 10.26730 | 86.25795 | 34750 ft | 454 kts | 117° |
| 2026-04-23 12:30 | 10.24091 | 86.31602 | 34750 ft | 454 kts | 117° |
| 2026-04-23 12:31 | 10.21439 | 86.37437 | 34750 ft | 454 kts | 117° |
| 2026-04-23 12:31 | 10.18802 | 86.43235 | 34750 ft | 454 kts | 117° |
| 2026-04-23 12:32 | 10.16142 | 86.49078 | 34789 ft | 456 kts | 117° |
| 2026-04-23 12:32 | 10.14822 | 86.51978 | 34990 ft | 455 kts | 117° |
| 2026-04-23 12:32 | 10.13501 | 86.54879 | 35237 ft | 454 kts | 117° |
| 2026-04-23 12:33 | 10.12163 | 86.57817 | 35455 ft | 453 kts | 117° |
| 2026-04-23 12:33 | 10.10852 | 86.60696 | 35638 ft | 453 kts | 117° |
| 2026-04-23 12:33 | 10.09520 | 86.63617 | 35813 ft | 453 kts | 117° |
| 2026-04-23 12:33 | 10.08211 | 86.66491 | 35978 ft | 453 kts | 117° |
| 2026-04-23 12:34 | 10.06889 | 86.69406 | 36135 ft | 453 kts | 117° |
| 2026-04-23 12:34 | 10.05569 | 86.72315 | 36290 ft | 453 kts | 117° |
| 2026-04-23 12:34 | 10.04252 | 86.75211 | 36435 ft | 453 kts | 117° |
| 2026-04-23 12:34 | 10.02931 | 86.78112 | 36574 ft | 453 kts | 117° |
| 2026-04-23 12:35 | 10.01618 | 86.80991 | 36698 ft | 453 kts | 117° |
| 2026-04-23 12:35 | 10.00280 | 86.83923 | 36735 ft | 454 kts | 117° |
| 2026-04-23 12:35 | 9.97627 | 86.89727 | 36746 ft | 454 kts | 117° |
| 2026-04-23 12:36 | 9.94959 | 86.95565 | 36750 ft | 454 kts | 117° |
| 2026-04-23 12:36 | 9.92310 | 87.01358 | 36755 ft | 454 kts | 117° |
| 2026-04-23 12:37 | 9.89649 | 87.07172 | 36761 ft | 455 kts | 117° |
| 2026-04-23 12:37 | 9.86953 | 87.13005 | 36767 ft | 455 kts | 117° |
| 2026-04-23 12:38 | 9.84285 | 87.18803 | 36771 ft | 455 kts | 117° |
| 2026-04-23 12:38 | 9.81608 | 87.24648 | 36774 ft | 455 kts | 117° |
| 2026-04-23 12:39 | 9.78945 | 87.30470 | 36775 ft | 456 kts | 117° |
| 2026-04-23 12:39 | 9.76285 | 87.36283 | 36776 ft | 456 kts | 116° |
| 2026-04-23 12:40 | 9.73675 | 87.42146 | 36776 ft | 456 kts | 116° |
| 2026-04-23 12:40 | 9.71085 | 87.48013 | 36776 ft | 456 kts | 116° |
| 2026-04-23 12:41 | 9.68496 | 87.53874 | 36776 ft | 456 kts | 116° |
| 2026-04-23 12:41 | 9.65890 | 87.59766 | 36776 ft | 456 kts | 116° |
| 2026-04-23 12:42 | 9.63305 | 87.65609 | 36775 ft | 457 kts | 116° |
| 2026-04-23 12:42 | 9.60705 | 87.71512 | 36775 ft | 457 kts | 116° |
| 2026-04-23 12:43 | 9.58108 | 87.77396 | 36776 ft | 457 kts | 116° |
| 2026-04-23 12:43 | 9.55505 | 87.83273 | 36776 ft | 457 kts | 116° |
| 2026-04-23 12:44 | 9.52898 | 87.89155 | 36776 ft | 457 kts | 116° |
| 2026-04-23 12:44 | 9.50285 | 87.95048 | 36776 ft | 456 kts | 116° |
| 2026-04-23 12:45 | 9.47672 | 88.00932 | 36775 ft | 456 kts | 116° |
| 2026-04-23 12:45 | 9.45058 | 88.06818 | 36776 ft | 457 kts | 116° |
| 2026-04-23 12:46 | 9.42443 | 88.12701 | 36776 ft | 457 kts | 116° |
| 2026-04-23 12:46 | 9.39846 | 88.18542 | 36776 ft | 457 kts | 116° |
| 2026-04-23 12:47 | 9.37222 | 88.24442 | 36776 ft | 457 kts | 116° |
| 2026-04-23 12:47 | 9.34606 | 88.30318 | 36776 ft | 457 kts | 116° |
| 2026-04-23 12:48 | 9.32000 | 88.36166 | 36776 ft | 456 kts | 116° |
| 2026-04-23 12:48 | 9.29400 | 88.42004 | 36776 ft | 456 kts | 116° |
| 2026-04-23 12:49 | 9.26785 | 88.47871 | 36776 ft | 456 kts | 116° |
| 2026-04-23 12:49 | 9.24165 | 88.53745 | 36776 ft | 457 kts | 116° |
| 2026-04-23 12:50 | 9.21565 | 88.59571 | 36776 ft | 457 kts | 116° |
| 2026-04-23 12:50 | 9.18930 | 88.65472 | 36776 ft | 456 kts | 116° |
| 2026-04-23 12:51 | 9.16338 | 88.71302 | 36776 ft | 456 kts | 116° |
| 2026-04-23 12:51 | 9.13739 | 88.77138 | 36776 ft | 456 kts | 116° |
| 2026-04-23 12:52 | 9.11111 | 88.83024 | 36776 ft | 456 kts | 116° |
| 2026-04-23 12:52 | 9.08499 | 88.88866 | 36776 ft | 456 kts | 116° |
| 2026-04-23 12:53 | 9.05873 | 88.94730 | 36776 ft | 456 kts | 116° |
| 2026-04-23 12:53 | 9.03261 | 89.00565 | 36775 ft | 456 kts | 116° |
| 2026-04-23 12:54 | 9.00644 | 89.06406 | 36776 ft | 456 kts | 115° |
| 2026-04-23 12:54 | 8.98023 | 89.12253 | 36776 ft | 456 kts | 115° |
| 2026-04-23 12:55 | 8.95393 | 89.18117 | 36776 ft | 456 kts | 115° |
| 2026-04-23 12:55 | 8.92781 | 89.23939 | 36776 ft | 456 kts | 115° |
| 2026-04-23 12:56 | 8.90149 | 89.29801 | 36776 ft | 457 kts | 115° |
| 2026-04-23 12:56 | 8.87501 | 89.35644 | 36776 ft | 457 kts | 116° |
| 2026-04-23 12:57 | 8.84861 | 89.41466 | 36776 ft | 456 kts | 115° |
| 2026-04-23 12:57 | 8.82226 | 89.47310 | 36776 ft | 456 kts | 115° |
| 2026-04-23 12:58 | 8.79586 | 89.53173 | 36776 ft | 456 kts | 115° |
| 2026-04-23 12:58 | 8.76954 | 89.59019 | 36776 ft | 456 kts | 115° |
| 2026-04-23 12:59 | 8.74318 | 89.64874 | 36776 ft | 457 kts | 115° |
| 2026-04-23 12:59 | 8.71697 | 89.70718 | 36775 ft | 457 kts | 115° |
| 2026-04-23 13:00 | 8.69066 | 89.76577 | 36776 ft | 457 kts | 115° |
| 2026-04-23 13:00 | 8.66439 | 89.82411 | 36776 ft | 456 kts | 115° |
| 2026-04-23 13:01 | 8.63811 | 89.88241 | 36776 ft | 456 kts | 115° |
| 2026-04-23 13:01 | 8.61180 | 89.94072 | 36776 ft | 456 kts | 115° |
| 2026-04-23 13:02 | 8.58534 | 89.99933 | 36776 ft | 456 kts | 115° |
| 2026-04-23 13:02 | 8.55897 | 90.05769 | 36775 ft | 456 kts | 115° |
| 2026-04-23 13:03 | 8.53280 | 90.11559 | 36776 ft | 456 kts | 115° |
| 2026-04-23 13:03 | 8.50644 | 90.17390 | 36776 ft | 456 kts | 115° |
| 2026-04-23 13:04 | 8.48008 | 90.23216 | 36776 ft | 456 kts | 115° |
| 2026-04-23 13:04 | 8.45372 | 90.29040 | 36776 ft | 456 kts | 115° |
| 2026-04-23 13:05 | 8.42736 | 90.34862 | 36776 ft | 456 kts | 115° |
| 2026-04-23 13:05 | 8.40106 | 90.40668 | 36776 ft | 456 kts | 115° |
| 2026-04-23 13:06 | 8.36136 | 90.49426 | 36776 ft | 455 kts | 115° |
| 2026-04-23 13:07 | 8.33509 | 90.55220 | 36776 ft | 455 kts | 115° |
| 2026-04-23 13:07 | 8.30874 | 90.61028 | 36776 ft | 455 kts | 115° |
| 2026-04-23 13:08 | 8.28285 | 90.66734 | 36775 ft | 455 kts | 115° |
| 2026-04-23 13:08 | 8.25663 | 90.72537 | 36776 ft | 455 kts | 115° |
| 2026-04-23 13:09 | 8.23032 | 90.78346 | 36776 ft | 454 kts | 115° |
| 2026-04-23 13:09 | 8.20402 | 90.84137 | 36776 ft | 454 kts | 116° |
| 2026-04-23 13:10 | 8.17765 | 90.89934 | 36776 ft | 453 kts | 115° |
| 2026-04-23 13:10 | 8.15144 | 90.95696 | 36776 ft | 453 kts | 115° |
| 2026-04-23 13:11 | 8.12511 | 91.01483 | 36776 ft | 453 kts | 115° |
| 2026-04-23 13:11 | 8.09879 | 91.07264 | 36776 ft | 452 kts | 115° |
| 2026-04-23 13:12 | 8.07255 | 91.13026 | 36776 ft | 452 kts | 116° |
| 2026-04-23 13:12 | 8.04631 | 91.18780 | 36776 ft | 452 kts | 116° |
| 2026-04-23 13:13 | 8.02006 | 91.24539 | 36776 ft | 451 kts | 116° |
| 2026-04-23 13:13 | 7.99381 | 91.30293 | 36777 ft | 451 kts | 115° |
| 2026-04-23 13:14 | 7.96773 | 91.36010 | 36776 ft | 450 kts | 116° |
| 2026-04-23 13:14 | 7.94166 | 91.41724 | 36776 ft | 449 kts | 116° |
| 2026-04-23 13:15 | 7.91534 | 91.47487 | 36776 ft | 449 kts | 116° |
| 2026-04-23 13:15 | 7.88917 | 91.53202 | 36776 ft | 449 kts | 116° |
| 2026-04-23 13:16 | 7.86294 | 91.58892 | 36776 ft | 449 kts | 116° |
| 2026-04-23 13:16 | 7.83671 | 91.64625 | 36776 ft | 448 kts | 115° |
| 2026-04-23 13:17 | 7.81081 | 91.70356 | 36776 ft | 449 kts | 115° |
| 2026-04-23 13:17 | 7.78534 | 91.76131 | 36776 ft | 449 kts | 115° |
| 2026-04-23 13:18 | 7.76018 | 91.81840 | 36776 ft | 448 kts | 115° |
| 2026-04-23 13:18 | 7.73483 | 91.87589 | 36776 ft | 448 kts | 115° |
| 2026-04-23 13:19 | 7.70944 | 91.93340 | 36776 ft | 448 kts | 115° |
| 2026-04-23 13:19 | 7.68394 | 91.99113 | 36776 ft | 448 kts | 115° |
| 2026-04-23 13:20 | 7.65849 | 92.04872 | 36776 ft | 448 kts | 115° |
| 2026-04-23 13:20 | 7.63326 | 92.10580 | 36776 ft | 448 kts | 115° |
| 2026-04-23 13:21 | 7.60781 | 92.16334 | 36776 ft | 448 kts | 115° |
| 2026-04-23 13:21 | 7.58246 | 92.22063 | 36776 ft | 448 kts | 115° |
| 2026-04-23 13:22 | 7.55705 | 92.27802 | 36775 ft | 447 kts | 115° |
| 2026-04-23 13:22 | 7.53163 | 92.33542 | 36776 ft | 448 kts | 115° |
| 2026-04-23 13:23 | 7.50631 | 92.39259 | 36776 ft | 447 kts | 115° |
| 2026-04-23 13:23 | 7.48097 | 92.44977 | 36775 ft | 447 kts | 115° |
| 2026-04-23 13:24 | 7.45573 | 92.50667 | 36776 ft | 447 kts | 115° |
| 2026-04-23 13:24 | 7.43036 | 92.56389 | 36776 ft | 447 kts | 115° |
| 2026-04-23 13:25 | 7.40488 | 92.62133 | 36776 ft | 447 kts | 115° |
| 2026-04-23 13:25 | 7.37958 | 92.67842 | 36776 ft | 446 kts | 115° |
| 2026-04-23 13:26 | 7.35436 | 92.73550 | 36776 ft | 446 kts | 115° |
| 2026-04-23 13:26 | 7.32900 | 92.79269 | 36776 ft | 446 kts | 115° |
| 2026-04-23 13:27 | 7.30371 | 92.84966 | 36776 ft | 446 kts | 115° |
| 2026-04-23 13:27 | 7.27840 | 92.90661 | 36776 ft | 446 kts | 115° |
| 2026-04-23 13:28 | 7.25294 | 92.96387 | 36776 ft | 446 kts | 115° |
| 2026-04-23 13:28 | 7.22756 | 93.02091 | 36776 ft | 446 kts | 114° |
| 2026-04-23 13:29 | 7.20226 | 93.07774 | 36776 ft | 446 kts | 114° |
| 2026-04-23 13:29 | 7.17687 | 93.13477 | 36776 ft | 446 kts | 114° |
| 2026-04-23 13:30 | 7.15150 | 93.19171 | 36775 ft | 446 kts | 114° |
| 2026-04-23 13:30 | 7.12604 | 93.24882 | 36776 ft | 446 kts | 114° |
| 2026-04-23 13:31 | 7.10057 | 93.30597 | 36776 ft | 446 kts | 114° |
| 2026-04-23 13:31 | 7.07515 | 93.36299 | 36776 ft | 446 kts | 114° |
| 2026-04-23 13:32 | 7.04975 | 93.41993 | 36776 ft | 446 kts | 114° |
| 2026-04-23 13:32 | 7.02430 | 93.47696 | 36776 ft | 446 kts | 114° |
| 2026-04-23 13:33 | 6.99887 | 93.53393 | 36776 ft | 446 kts | 114° |
| 2026-04-23 13:33 | 6.97341 | 93.59091 | 36776 ft | 446 kts | 114° |
| 2026-04-23 13:34 | 6.94807 | 93.64761 | 36776 ft | 446 kts | 114° |
| 2026-04-23 13:34 | 6.92278 | 93.70444 | 36776 ft | 446 kts | 114° |
| 2026-04-23 13:35 | 6.89730 | 93.76160 | 36776 ft | 446 kts | 114° |
| 2026-04-23 13:35 | 6.87155 | 93.81865 | 36776 ft | 446 kts | 114° |
| 2026-04-23 13:36 | 6.84606 | 93.87524 | 36776 ft | 446 kts | 114° |
| 2026-04-23 13:36 | 6.82051 | 93.93220 | 36776 ft | 446 kts | 114° |
| 2026-04-23 13:37 | 6.79499 | 93.98917 | 36776 ft | 446 kts | 114° |
| 2026-04-23 13:37 | 6.76948 | 94.04611 | 36775 ft | 446 kts | 114° |
| 2026-04-23 13:38 | 6.74402 | 94.10298 | 36776 ft | 446 kts | 114° |
| 2026-04-23 13:38 | 6.71854 | 94.15987 | 36776 ft | 446 kts | 114° |
| 2026-04-23 13:39 | 6.69314 | 94.21656 | 36776 ft | 446 kts | 114° |
| 2026-04-23 13:39 | 6.66766 | 94.27345 | 36776 ft | 446 kts | 114° |
| 2026-04-23 13:40 | 6.64219 | 94.33036 | 36776 ft | 446 kts | 114° |
| 2026-04-23 13:40 | 6.61660 | 94.38743 | 36776 ft | 446 kts | 114° |
| 2026-04-23 13:41 | 6.58870 | 94.44320 | 36786 ft | 446 kts | 119° |
| 2026-04-23 13:41 | 6.55851 | 94.49757 | 36796 ft | 446 kts | 119° |
| 2026-04-23 13:42 | 6.52823 | 94.55210 | 36801 ft | 445 kts | 119° |
| 2026-04-23 13:42 | 6.49808 | 94.60650 | 36803 ft | 445 kts | 119° |
| 2026-04-23 13:43 | 6.46797 | 94.66087 | 36804 ft | 445 kts | 119° |
| 2026-04-23 13:43 | 6.43792 | 94.71541 | 36804 ft | 445 kts | 119° |
| 2026-04-23 13:44 | 6.40756 | 94.77035 | 36804 ft | 445 kts | 119° |
| 2026-04-23 13:44 | 6.37737 | 94.82488 | 36804 ft | 445 kts | 119° |
| 2026-04-23 13:45 | 6.34707 | 94.87956 | 36804 ft | 445 kts | 119° |
| 2026-04-23 13:45 | 6.31693 | 94.93392 | 36804 ft | 445 kts | 119° |
| 2026-04-23 13:46 | 6.28668 | 94.98852 | 36804 ft | 445 kts | 119° |
| 2026-04-23 13:46 | 6.25666 | 95.04266 | 36804 ft | 445 kts | 119° |
| 2026-04-23 13:47 | 6.22633 | 95.09734 | 36804 ft | 445 kts | 119° |
| 2026-04-23 13:47 | 6.19608 | 95.15211 | 36804 ft | 445 kts | 119° |
| 2026-04-23 13:48 | 6.16610 | 95.20649 | 36804 ft | 445 kts | 119° |
| 2026-04-23 13:48 | 6.13597 | 95.26116 | 36805 ft | 445 kts | 119° |
| 2026-04-23 13:49 | 6.10605 | 95.31548 | 36804 ft | 444 kts | 119° |
| 2026-04-23 13:49 | 6.07702 | 95.36815 | 36804 ft | 444 kts | 119° |
| 2026-04-23 13:50 | 6.04756 | 95.42160 | 36804 ft | 444 kts | 119° |
| 2026-04-23 13:50 | 6.01740 | 95.47593 | 36804 ft | 444 kts | 121° |
| 2026-04-23 13:51 | 5.98333 | 95.52783 | 36804 ft | 445 kts | 127° |
| 2026-04-23 13:51 | 5.94440 | 95.57712 | 36804 ft | 445 kts | 129° |
| 2026-04-23 13:52 | 5.90544 | 95.62546 | 36804 ft | 445 kts | 129° |
| 2026-04-23 13:52 | 5.86655 | 95.67362 | 36804 ft | 445 kts | 129° |
| 2026-04-23 13:53 | 5.82750 | 95.72221 | 36804 ft | 445 kts | 129° |
| 2026-04-23 13:53 | 5.78855 | 95.77071 | 36804 ft | 445 kts | 129° |
| 2026-04-23 13:54 | 5.74961 | 95.81918 | 36804 ft | 444 kts | 129° |
| 2026-04-23 13:54 | 5.71094 | 95.86729 | 36804 ft | 444 kts | 129° |
| 2026-04-23 13:55 | 5.67190 | 95.91585 | 36804 ft | 445 kts | 129° |
| 2026-04-23 13:55 | 5.63303 | 95.96420 | 36804 ft | 445 kts | 129° |
| 2026-04-23 13:56 | 5.59404 | 96.01267 | 36805 ft | 445 kts | 129° |
| 2026-04-23 13:56 | 5.55515 | 96.06104 | 36804 ft | 445 kts | 129° |
| 2026-04-23 13:57 | 5.51633 | 96.10927 | 36804 ft | 445 kts | 129° |
| 2026-04-23 13:57 | 5.47720 | 96.15788 | 36804 ft | 445 kts | 129° |
| 2026-04-23 13:58 | 5.43829 | 96.20623 | 36804 ft | 446 kts | 129° |
| 2026-04-23 13:58 | 5.39923 | 96.25474 | 36804 ft | 446 kts | 129° |
| 2026-04-23 13:59 | 5.36030 | 96.30309 | 36804 ft | 445 kts | 129° |
| 2026-04-23 13:59 | 5.32141 | 96.35137 | 36804 ft | 445 kts | 129° |
| 2026-04-23 14:00 | 5.28884 | 96.39179 | 36804 ft | 445 kts | 129° |
| 2026-04-23 14:00 | 5.24359 | 96.44795 | 36804 ft | 445 kts | 129° |
| 2026-04-23 14:01 | 5.20471 | 96.49619 | 36804 ft | 445 kts | 129° |
| 2026-04-23 14:01 | 5.16560 | 96.54472 | 36804 ft | 445 kts | 129° |
| 2026-04-23 14:02 | 5.12665 | 96.59303 | 36804 ft | 445 kts | 129° |
| 2026-04-23 14:02 | 5.08735 | 96.64177 | 36804 ft | 445 kts | 129° |
| 2026-04-23 14:03 | 5.04850 | 96.69013 | 36804 ft | 445 kts | 129° |
| 2026-04-23 14:03 | 5.00952 | 96.73866 | 36804 ft | 446 kts | 129° |
| 2026-04-23 14:04 | 4.97070 | 96.78684 | 36804 ft | 446 kts | 129° |
| 2026-04-23 14:04 | 4.93163 | 96.83528 | 36804 ft | 446 kts | 129° |
| 2026-04-23 14:05 | 4.89246 | 96.88380 | 36804 ft | 446 kts | 129° |
| 2026-04-23 14:05 | 4.85335 | 96.92835 | 36803 ft | 445 kts | 135° |
| 2026-04-23 14:06 | 4.80705 | 96.96979 | 36793 ft | 446 kts | 142° |
| 2026-04-23 14:06 | 4.78231 | 96.98805 | 36541 ft | 445 kts | 146° |
| 2026-04-23 14:06 | 4.75714 | 97.00426 | 36297 ft | 442 kts | 149° |
| 2026-04-23 14:06 | 4.73040 | 97.01926 | 36046 ft | 438 kts | 152° |
| 2026-04-23 14:07 | 4.70366 | 97.03346 | 35796 ft | 436 kts | 152° |
| 2026-04-23 14:07 | 4.65028 | 97.06160 | 35297 ft | 434 kts | 152° |
| 2026-04-23 14:07 | 4.62333 | 97.07584 | 35023 ft | 434 kts | 152° |
| 2026-04-23 14:08 | 4.59671 | 97.08991 | 34636 ft | 435 kts | 152° |
| 2026-04-23 14:08 | 4.56996 | 97.10407 | 34131 ft | 435 kts | 152° |
| 2026-04-23 14:08 | 4.54305 | 97.11832 | 33529 ft | 436 kts | 152° |
| 2026-04-23 14:08 | 4.51648 | 97.13237 | 32890 ft | 437 kts | 152° |
| 2026-04-23 14:09 | 4.48947 | 97.14666 | 32215 ft | 438 kts | 152° |
| 2026-04-23 14:09 | 4.46258 | 97.16087 | 31532 ft | 439 kts | 152° |
| 2026-04-23 14:09 | 4.43581 | 97.17559 | 30829 ft | 440 kts | 149° |
| 2026-04-23 14:09 | 4.40965 | 97.19172 | 30106 ft | 441 kts | 146° |
| 2026-04-23 14:10 | 4.38434 | 97.20931 | 29373 ft | 442 kts | 143° |
| 2026-04-23 14:10 | 4.35999 | 97.22820 | 28624 ft | 444 kts | 140° |
| 2026-04-23 14:10 | 4.33581 | 97.24769 | 27848 ft | 445 kts | 140° |
| 2026-04-23 14:10 | 4.31186 | 97.26708 | 27062 ft | 447 kts | 140° |
| 2026-04-23 14:11 | 4.28734 | 97.28693 | 26247 ft | 449 kts | 140° |
| 2026-04-23 14:11 | 4.26329 | 97.30636 | 25707 ft | 444 kts | 140° |
| 2026-04-23 14:11 | 4.23927 | 97.32576 | 25189 ft | 439 kts | 140° |
| 2026-04-23 14:11 | 4.21528 | 97.34513 | 24665 ft | 434 kts | 140° |
| 2026-04-23 14:12 | 4.19186 | 97.36403 | 24148 ft | 430 kts | 140° |
| 2026-04-23 14:12 | 4.16872 | 97.38270 | 23634 ft | 426 kts | 140° |
| 2026-04-23 14:12 | 4.14560 | 97.40134 | 23115 ft | 422 kts | 140° |
| 2026-04-23 14:12 | 4.12320 | 97.41966 | 22649 ft | 420 kts | 137° |
| 2026-04-23 14:13 | 4.10264 | 97.44125 | 22639 ft | 426 kts | 127° |
| 2026-04-23 14:13 | 4.08625 | 97.46561 | 22662 ft | 426 kts | 118° |
| 2026-04-23 14:13 | 4.07371 | 97.49292 | 22691 ft | 426 kts | 111° |
| 2026-04-23 14:13 | 4.06301 | 97.52049 | 22693 ft | 426 kts | 110° |
| 2026-04-23 14:14 | 4.05240 | 97.54862 | 22157 ft | 427 kts | 110° |
| 2026-04-23 14:14 | 4.04186 | 97.57647 | 21588 ft | 423 kts | 110° |
| 2026-04-23 14:14 | 4.03141 | 97.60387 | 21043 ft | 418 kts | 110° |
| 2026-04-23 14:14 | 4.02100 | 97.63096 | 20511 ft | 414 kts | 110° |
| 2026-04-23 14:15 | 4.01068 | 97.65771 | 19989 ft | 410 kts | 110° |
| 2026-04-23 14:15 | 4.00051 | 97.68412 | 19470 ft | 406 kts | 110° |
| 2026-04-23 14:15 | 3.99034 | 97.71040 | 18954 ft | 402 kts | 111° |
| 2026-04-23 14:15 | 3.97919 | 97.73619 | 18579 ft | 399 kts | 114° |
| 2026-04-23 14:16 | 3.96754 | 97.76151 | 18604 ft | 403 kts | 114° |
| 2026-04-23 14:16 | 3.95576 | 97.78700 | 18623 ft | 404 kts | 114° |
| 2026-04-23 14:16 | 3.94380 | 97.81285 | 18638 ft | 404 kts | 114° |
| 2026-04-23 14:16 | 3.93202 | 97.83836 | 18637 ft | 404 kts | 114° |
| 2026-04-23 14:17 | 3.92025 | 97.86385 | 18236 ft | 405 kts | 114° |
| 2026-04-23 14:17 | 3.90851 | 97.88927 | 17701 ft | 401 kts | 114° |
| 2026-04-23 14:17 | 3.89681 | 97.91465 | 17169 ft | 397 kts | 114° |
| 2026-04-23 14:17 | 3.88510 | 97.93978 | 16638 ft | 394 kts | 114° |
| 2026-04-23 14:18 | 3.87350 | 97.96466 | 16107 ft | 390 kts | 114° |
| 2026-04-23 14:18 | 3.86213 | 97.98915 | 15582 ft | 387 kts | 114° |
| 2026-04-23 14:18 | 3.85074 | 98.01376 | 15056 ft | 384 kts | 114° |
| 2026-04-23 14:18 | 3.83949 | 98.03813 | 14532 ft | 381 kts | 114° |
| 2026-04-23 14:19 | 3.82833 | 98.06233 | 14009 ft | 379 kts | 114° |
| 2026-04-23 14:19 | 3.81714 | 98.08663 | 13487 ft | 376 kts | 114° |
| 2026-04-23 14:19 | 3.80630 | 98.11017 | 12981 ft | 374 kts | 114° |
| 2026-04-23 14:19 | 3.79541 | 98.13381 | 12477 ft | 371 kts | 115° |
| 2026-04-23 14:20 | 3.78463 | 98.15719 | 11979 ft | 369 kts | 115° |
| 2026-04-23 14:20 | 3.77385 | 98.18053 | 11482 ft | 366 kts | 115° |
| 2026-04-23 14:20 | 3.76246 | 98.20335 | 10990 ft | 364 kts | 118° |
| 2026-04-23 14:20 | 3.74996 | 98.22518 | 10584 ft | 358 kts | 120° |
| 2026-04-23 14:21 | 3.73747 | 98.24639 | 10446 ft | 343 kts | 120° |
| 2026-04-23 14:21 | 3.72566 | 98.26642 | 10317 ft | 329 kts | 120° |
| 2026-04-23 14:21 | 3.71415 | 98.28595 | 10199 ft | 315 kts | 120° |
| 2026-04-23 14:21 | 3.70332 | 98.30437 | 10100 ft | 302 kts | 120° |
| 2026-04-23 14:22 | 3.69279 | 98.32231 | 10011 ft | 289 kts | 120° |
| 2026-04-23 14:22 | 3.68269 | 98.33951 | 9708 ft | 286 kts | 120° |
| 2026-04-23 14:22 | 3.67268 | 98.35658 | 9375 ft | 283 kts | 120° |
| 2026-04-23 14:22 | 3.66265 | 98.37367 | 9047 ft | 281 kts | 120° |
| 2026-04-23 14:23 | 3.65281 | 98.39044 | 8727 ft | 278 kts | 120° |
| 2026-04-23 14:23 | 3.64310 | 98.40699 | 8413 ft | 276 kts | 120° |
| 2026-04-23 14:23 | 3.63333 | 98.42365 | 8095 ft | 274 kts | 120° |
| 2026-04-23 14:23 | 3.62366 | 98.44013 | 7776 ft | 272 kts | 120° |
| 2026-04-23 14:24 | 3.61420 | 98.45626 | 7467 ft | 270 kts | 120° |
| 2026-04-23 14:24 | 3.60473 | 98.47239 | 7160 ft | 268 kts | 120° |
| 2026-04-23 14:24 | 3.59520 | 98.48862 | 6851 ft | 265 kts | 120° |
| 2026-04-23 14:24 | 3.58596 | 98.50433 | 6553 ft | 264 kts | 120° |
| 2026-04-23 14:25 | 3.57667 | 98.52013 | 6252 ft | 262 kts | 120° |
| 2026-04-23 14:25 | 3.56708 | 98.53603 | 5943 ft | 261 kts | 123° |
| 2026-04-23 14:25 | 3.55629 | 98.55055 | 5492 ft | 265 kts | 130° |
| 2026-04-23 14:25 | 3.54356 | 98.56443 | 4867 ft | 273 kts | 134° |
| 2026-04-23 14:26 | 3.53048 | 98.57797 | 4461 ft | 273 kts | 134° |
| 2026-04-23 14:26 | 3.51717 | 98.59171 | 4104 ft | 270 kts | 134° |
| 2026-04-23 14:26 | 3.50415 | 98.60518 | 3740 ft | 269 kts | 134° |
| 2026-04-23 14:26 | 3.49121 | 98.61861 | 3381 ft | 266 kts | 133° |
| 2026-04-23 14:27 | 3.47834 | 98.63200 | 3076 ft | 262 kts | 134° |
| 2026-04-23 14:27 | 3.46606 | 98.64480 | 3018 ft | 250 kts | 134° |
| 2026-04-23 14:27 | 3.45445 | 98.65727 | 3002 ft | 234 kts | 127° |
| 2026-04-23 14:27 | 3.44884 | 98.67172 | 2968 ft | 217 kts | 90° |
| 2026-04-23 14:28 | 3.45203 | 98.68559 | 3001 ft | 197 kts | 61° |
| 2026-04-23 14:28 | 3.46001 | 98.69586 | 3092 ft | 193 kts | 45° |
| 2026-04-23 14:28 | 3.46993 | 98.70501 | 3043 ft | 192 kts | 41° |
| 2026-04-23 14:28 | 3.47990 | 98.71392 | 3025 ft | 192 kts | 43° |
| 2026-04-23 14:29 | 3.48971 | 98.72303 | 3017 ft | 191 kts | 44° |
| 2026-04-23 14:29 | 3.49941 | 98.73238 | 3014 ft | 192 kts | 44° |
| 2026-04-23 14:29 | 3.50895 | 98.74178 | 3013 ft | 192 kts | 45° |
| 2026-04-23 14:29 | 3.51843 | 98.75124 | 2979 ft | 192 kts | 45° |
| 2026-04-23 14:30 | 3.52783 | 98.76066 | 2777 ft | 191 kts | 45° |
| 2026-04-23 14:30 | 3.53726 | 98.77012 | 2521 ft | 190 kts | 45° |
| 2026-04-23 14:30 | 3.54659 | 98.77946 | 2296 ft | 185 kts | 45° |
| 2026-04-23 14:30 | 3.55528 | 98.78816 | 2053 ft | 168 kts | 45° |
| 2026-04-23 14:31 | 3.56315 | 98.79603 | 1806 ft | 152 kts | 45° |
| 2026-04-23 14:31 | 3.57045 | 98.80334 | 1603 ft | 149 kts | 45° |
| 2026-04-23 14:31 | 3.57781 | 98.81068 | 1406 ft | 148 kts | 45° |
| 2026-04-23 14:31 | 3.58514 | 98.81801 | 1211 ft | 148 kts | 45° |
| 2026-04-23 14:32 | 3.59248 | 98.82533 | 1015 ft | 147 kts | 45° |
| 2026-04-23 14:32 | 3.59974 | 98.83253 | 824 ft | 147 kts | 44° |
| 2026-04-23 14:32 | 3.60706 | 98.83970 | 621 ft | 146 kts | 44° |
| 2026-04-23 14:32 | 3.61425 | 98.84699 | 429 ft | 146 kts | 45° |
| 2026-04-23 14:33 | 3.62137 | 98.85413 | 239 ft | 145 kts | 45° |
| 2026-04-23 14:33 | 3.62849 | 98.86129 | 98 ft | 143 kts | 44° |
| 2026-04-23 14:33 | 3.63494 | 98.86773 | 84 ft | 110 kts | 44° |
| 2026-04-23 14:33 | 3.63915 | 98.87191 | 84 ft | 59 kts | 44° |
| 2026-04-23 14:34 | 3.64077 | 98.87423 | 84 ft | 32 kts | 70° |
| 2026-04-23 14:34 | 3.64102 | 98.87563 | 84 ft | 17 kts | 114° |
| 2026-04-23 14:34 | 3.64030 | 98.87645 | 84 ft | 8 kts | 130° |
| 2026-04-23 14:34 | 3.64034 | 98.87701 | 84 ft | 9 kts | 44° |
| 2026-04-23 14:35 | 3.64086 | 98.87752 | 84 ft | 11 kts | 46° |
| 2026-04-23 14:35 | 3.64143 | 98.87811 | 84 ft | 12 kts | 46° |
| 2026-04-23 14:35 | 3.64207 | 98.87874 | 84 ft | 13 kts | 44° |
| 2026-04-23 14:35 | 3.64277 | 98.87942 | 84 ft | 14 kts | 50° |
| 2026-04-23 14:36 | 3.64252 | 98.88030 | 84 ft | 15 kts | 136° |
| 2026-04-23 14:36 | 3.64175 | 98.88104 | 84 ft | 15 kts | 136° |
| 2026-04-23 14:36 | 3.64083 | 98.88131 | 84 ft | 15 kts | 222° |
| 2026-04-23 14:36 | 3.64002 | 98.88052 | 84 ft | 16 kts | 225° |
| 2026-04-23 14:37 | 3.63922 | 98.87968 | 84 ft | 16 kts | 239° |
| 2026-04-23 14:37 | 3.63867 | 98.87889 | 84 ft | 4 kts | 227° |
| 2026-04-23 14:37 | 3.63855 | 98.87876 | 84 ft | 0 kts | 227° |
| 2026-04-23 14:37 | 3.63856 | 98.87877 | 84 ft | 0 kts | 227° |